KEND/END METAR and TAF weather

Enter ICAO airport designator
Station Type Date Time Source
KEND METAR 2020/08/06 00:18 UTC NOAA

KEND 060018Z 13008KT 10SM CLR 28/23 A2995 RMK A02A SLP133


Station Type Date Time Source
KEND Decoded METAR 2020/08/06 00:18 UTC NOAA

Vance Air Force Base / Enid, OK, United States (KEND) 36-20N 097-55W
Aug 05, 2020 - 08:18 PM EDT / 2020.08.06 0018 UTC
Wind: from the SE (130 degrees) at 9 MPH (8 KT):0
Visibility: 10 mile(s):0
Sky conditions: clear
Temperature: 82 F (28 C)
Dew Point: 73 F (23 C)
Relative Humidity: 74%
Pressure (altimeter): 29.95 in. Hg (1014 hPa)
ob: KEND 060018Z 13008KT 10SM CLR 28/23 A2995 RMK A02A SLP133
cycle: 0

Station Type Date Time Source
KEND TAF 2020/08/05 18:15 UTC NOAA

TAF TAF KEND 051800Z 0518/0624 13006KT 9999 SCT017 QNH3000INS
TEMPO 0518/0521 BKN017
BECMG 0523/0524 14009KT 9999 SKC QNH2993INS
BECMG 0602/0603 15012KT 9999 BKN028 QNH2995INS
BECMG 0605/0606 VRB06KT 8000 BR SCT010 BKN020 QNH2990INS
TEMPO 0611/0615 VRB10G25KT 6000 -TSRA BKN005CB OVC120
BECMG 0619/0620 16010G18KT 9999 NSW FEW090 SCT100 BKN120 QNH2987INS TX29/0618Z TN20/0612Z

Example: see airport list